Time,TemperatureF,DewpointF,PressureIn,WindDirection,WindDirectionDegrees,WindSpeedMPH,WindSpeedGustMPH,Humidity,HourlyPrecipIn,Conditions,Clouds,dailyrainin,SoftwareType,DateUTC
2013-09-04 00:10:00,66.3,52.0,31.73,ESE,104,4.0,6.0,60,0.00,,,0.00,weatherlink.com 1.10,2013-09-04 06:10:00,
2013-09-04 00:25:00,66.7,52.0,31.74,East,98,2.0,7.0,60,0.00,,,0.00,weatherlink.com 1.10,2013-09-04 06:25:00,
2013-09-04 00:40:00,66.0,52.0,31.74,East,95,3.0,5.0,61,0.00,,,0.00,weatherlink.com 1.10,2013-09-04 06:40:00,
2013-09-04 00:55:00,65.8,53.0,31.74,ESE,109,5.0,7.0,64,0.00,,,0.00,weatherlink.com 1.10,2013-09-04 06:55:00,
2013-09-04 01:10:00,65.7,54.0,31.74,East,93,7.0,10.0,65,0.00,,,0.00,weatherlink.com 1.10,2013-09-04 07:10:00,
2013-09-04 01:25:00,65.6,53.0,31.74,ESE,106,2.0,11.0,65,0.00,,,0.00,weatherlink.com 1.10,2013-09-04 07:25:00,
2013-09-04 01:40:00,65.1,53.0,31.74,East,95,2.0,5.0,66,0.00,,,0.00,weatherlink.com 1.10,2013-09-04 07:40:00,
2013-09-04 01:55:00,64.7,53.0,31.74,East,91,5.0,7.0,67,0.00,,,0.00,weatherlink.com 1.10,2013-09-04 07:55:00,
2013-09-04 02:10:00,64.6,53.0,31.74,East,94,5.0,5.0,66,0.00,,,0.00,weatherlink.com 1.10,2013-09-04 08:10:00,
2013-09-04 02:25:00,64.2,53.0,31.73,East,98,2.0,7.0,67,0.00,,,0.00,weatherlink.com 1.10,2013-09-04 08:25:00,
2013-09-04 02:40:00,63.7,53.0,31.74,ESE,102,5.0,8.0,68,0.00,,,0.00,weatherlink.com 1.10,2013-09-04 08:40:00,
2013-09-04 02:56:00,63.0,53.0,31.73,East,84,6.0,8.0,70,0.00,,,0.00,weatherlink.com 1.10,2013-09-04 08:56:00,
2013-09-04 03:11:00,63.6,53.0,31.73,East,82,2.0,7.0,68,0.00,,,0.00,weatherlink.com 1.10,2013-09-04 09:11:00,
2013-09-04 03:26:00,63.5,53.0,31.73,East,87,5.0,6.0,69,0.00,,,0.00,weatherlink.com 1.10,2013-09-04 09:26:00,
2013-09-04 03:41:00,63.2,52.0,31.73,East,83,2.0,6.0,68,0.00,,,0.00,weatherlink.com 1.10,2013-09-04 09:41:00,
2013-09-04 03:56:00,63.0,53.0,31.74,East,94,5.0,7.0,69,0.00,,,0.00,weatherlink.com 1.10,2013-09-04 09:56:00,
2013-09-04 04:11:00,62.6,53.0,31.74,ESE,106,4.0,5.0,71,0.00,,,0.00,weatherlink.com 1.10,2013-09-04 10:11:00,
2013-09-04 04:26:00,62.4,53.0,31.75,East,94,2.0,5.0,71,0.00,,,0.00,weatherlink.com 1.10,2013-09-04 10:26:00,
2013-09-04 04:41:00,61.7,52.0,31.75,East,93,3.0,6.0,71,0.00,,,0.00,weatherlink.com 1.10,2013-09-04 10:41:00,
2013-09-04 04:56:00,61.8,53.0,31.76,East,84,2.0,7.0,73,0.00,,,0.00,weatherlink.com 1.10,2013-09-04 10:56:00,
2013-09-04 05:11:00,62.5,53.0,31.77,East,88,6.0,8.0,71,0.00,,,0.00,weatherlink.com 1.10,2013-09-04 11:11:00,
2013-09-04 05:26:00,62.3,53.0,31.77,East,89,6.0,8.0,71,0.00,,,0.00,weatherlink.com 1.10,2013-09-04 11:26:00,
2013-09-04 05:41:00,62.1,52.0,31.77,ESE,106,4.0,7.0,70,0.00,,,0.00,weatherlink.com 1.10,2013-09-04 11:41:00,
2013-09-04 05:56:00,62.4,52.0,31.77,ESE,122,4.0,7.0,70,0.00,,,0.00,weatherlink.com 1.10,2013-09-04 11:56:00,
2013-09-04 06:11:00,61.9,52.0,31.77,ESE,103,3.0,6.0,71,0.00,,,0.00,weatherlink.com 1.10,2013-09-04 12:11:00,
2013-09-04 06:26:00,61.6,52.0,31.78,East,101,5.0,5.0,71,0.00,,,0.00,weatherlink.com 1.10,2013-09-04 12:26:00,
2013-09-04 06:41:00,61.4,52.0,31.79,East,98,2.0,5.0,72,0.00,,,0.00,weatherlink.com 1.10,2013-09-04 12:41:00,
2013-09-04 06:56:00,60.9,52.0,31.79,East,96,3.0,6.0,73,0.00,,,0.00,weatherlink.com 1.10,2013-09-04 12:56:00,
2013-09-04 07:11:00,60.3,52.0,31.79,East,96,5.0,6.0,74,0.00,,,0.00,weatherlink.com 1.10,2013-09-04 13:11:00,
2013-09-04 07:26:00,60.1,52.0,31.80,ESE,113,2.0,5.0,74,0.00,,,0.00,weatherlink.com 1.10,2013-09-04 13:26:00,
2013-09-04 07:41:00,59.9,52.0,31.80,East,101,3.0,5.0,75,0.00,,,0.00,weatherlink.com 1.10,2013-09-04 13:41:00,
2013-09-04 07:56:00,60.5,52.0,31.81,SE,128,4.0,5.0,74,0.00,,,0.00,weatherlink.com 1.10,2013-09-04 13:56:00,
2013-09-04 08:11:00,62.0,53.0,31.81,ESE,113,3.0,7.0,72,0.00,,,0.00,weatherlink.com 1.10,2013-09-04 14:11:00,
2013-09-04 08:26:00,64.0,53.0,31.80,East,99,7.0,10.0,68,0.00,,,0.00,weatherlink.com 1.10,2013-09-04 14:26:00,
2013-09-04 08:41:00,63.8,53.0,31.80,ESE,106,7.0,9.0,67,0.00,,,0.00,weatherlink.com 1.10,2013-09-04 14:41:00,
2013-09-04 08:56:00,62.6,53.0,31.80,ESE,113,7.0,7.0,70,0.00,,,0.00,weatherlink.com 1.10,2013-09-04 14:56:00,
2013-09-04 09:11:00,63.2,53.0,31.80,ESE,109,4.0,8.0,69,0.00,,,0.00,weatherlink.com 1.10,2013-09-04 15:11:00,
2013-09-04 09:26:00,63.7,53.0,31.80,SE,128,6.0,8.0,68,0.00,,,0.00,weatherlink.com 1.10,2013-09-04 15:26:00,
2013-09-04 09:41:00,64.0,53.0,31.80,ESE,121,3.0,7.0,68,0.00,,,0.00,weatherlink.com 1.10,2013-09-04 15:41:00,
2013-09-04 09:56:00,65.6,54.0,31.80,SE,137,5.0,9.0,66,0.00,,,0.00,weatherlink.com 1.10,2013-09-04 15:56:00,
2013-09-04 10:11:00,66.0,53.0,31.80,SE,135,9.0,10.0,63,0.00,,,0.00,weatherlink.com 1.10,2013-09-04 16:11:00,
2013-09-04 10:27:00,66.8,54.0,31.80,SE,134,4.0,9.0,63,0.00,,,0.00,weatherlink.com 1.10,2013-09-04 16:27:00,
2013-09-04 10:42:00,67.9,53.0,31.80,SE,132,7.0,12.0,60,0.00,,,0.00,weatherlink.com 1.10,2013-09-04 16:42:00,
2013-09-04 10:57:00,68.9,53.0,31.79,SE,142,6.0,11.0,58,0.00,,,0.00,weatherlink.com 1.10,2013-09-04 16:57:00,
2013-09-04 11:12:00,69.9,53.0,31.79,SE,144,8.0,12.0,55,0.00,,,0.00,weatherlink.com 1.10,2013-09-04 17:12:00,
2013-09-04 11:27:00,70.7,54.0,31.78,SSE,167,7.0,13.0,55,0.00,,,0.00,weatherlink.com 1.10,2013-09-04 17:27:00,
2013-09-04 11:42:00,71.7,53.0,31.78,SE,139,2.0,9.0,52,0.00,,,0.00,weatherlink.com 1.10,2013-09-04 17:42:00,
2013-09-04 11:57:00,72.4,53.0,31.77,SSW,202,8.0,8.0,50,0.00,,,0.00,weatherlink.com 1.10,2013-09-04 17:57:00,
2013-09-04 12:12:00,72.2,52.0,31.77,SSE,166,2.0,9.0,50,0.00,,,0.00,weatherlink.com 1.10,2013-09-04 18:12:00,
2013-09-04 12:27:00,73.4,52.0,31.77,SW,229,1.0,8.0,47,0.00,,,0.00,weatherlink.com 1.10,2013-09-04 18:27:00,
2013-09-04 12:42:00,74.2,51.0,31.76,SE,141,6.0,12.0,45,0.00,,,0.00,weatherlink.com 1.10,2013-09-04 18:42:00,
2013-09-04 12:57:00,74.2,52.0,31.75,South,180,5.0,9.0,46,0.00,,,0.00,weatherlink.com 1.10,2013-09-04 18:57:00,
2013-09-04 13:12:00,76.2,52.0,31.75,SE,126,6.0,11.0,43,0.00,,,0.00,weatherlink.com 1.10,2013-09-04 19:12:00,
2013-09-04 13:27:00,76.5,52.0,31.74,SSE,147,6.0,8.0,43,0.00,,,0.00,weatherlink.com 1.10,2013-09-04 19:27:00,
2013-09-04 13:42:00,77.3,50.0,31.73,SE,132,5.0,11.0,39,0.00,,,0.00,weatherlink.com 1.10,2013-09-04 19:42:00,
2013-09-04 13:57:00,78.4,51.0,31.73,South,184,3.0,10.0,38,0.00,,,0.00,weatherlink.com 1.10,2013-09-04 19:57:00,
2013-09-04 14:12:00,79.6,50.0,31.72,SE,128,8.0,10.0,36,0.00,,,0.00,weatherlink.com 1.10,2013-09-04 20:12:00,
2013-09-04 14:27:00,79.7,46.0,31.71,ENE,67,0.0,12.0,31,0.00,,,0.00,weatherlink.com 1.10,2013-09-04 20:27:00,
2013-09-04 14:42:00,80.2,49.0,31.71,SSE,160,5.0,11.0,33,0.00,,,0.00,weatherlink.com 1.10,2013-09-04 20:42:00,
2013-09-04 14:57:00,81.1,47.0,31.70,WSW,249,1.0,13.0,30,0.00,,,0.00,weatherlink.com 1.10,2013-09-04 20:57:00,
2013-09-04 15:12:00,81.7,46.0,31.69,East,85,5.0,14.0,28,0.00,,,0.00,weatherlink.com 1.10,2013-09-04 21:12:00,
2013-09-04 15:28:00,82.5,45.0,31.69,West,260,3.0,11.0,27,0.00,,,0.00,weatherlink.com 1.10,2013-09-04 21:28:00,
2013-09-04 15:43:00,82.9,41.0,31.69,SE,140,5.0,12.0,23,0.00,,,0.00,weatherlink.com 1.10,2013-09-04 21:43:00,
2013-09-04 15:58:00,82.6,44.0,31.68,SSE,156,8.0,8.0,26,0.00,,,0.00,weatherlink.com 1.10,2013-09-04 21:58:00,
2013-09-04 16:13:00,83.4,42.0,31.68,SE,144,4.0,12.0,23,0.00,,,0.00,weatherlink.com 1.10,2013-09-04 22:13:00,
2013-09-04 16:28:00,83.6,44.0,31.67,WSW,249,11.0,13.0,25,0.00,,,0.00,weatherlink.com 1.10,2013-09-04 22:28:00,
2013-09-04 16:43:00,83.3,45.0,31.66,WSW,256,4.0,11.0,26,0.00,,,0.00,weatherlink.com 1.10,2013-09-04 22:43:00,
2013-09-04 16:58:00,82.7,44.0,31.65,WNW,303,4.0,9.0,26,0.00,,,0.00,weatherlink.com 1.10,2013-09-04 22:58:00,
2013-09-04 17:13:00,82.9,45.0,31.64,WSW,244,5.0,12.0,26,0.00,,,0.00,weatherlink.com 1.10,2013-09-04 23:13:00,
2013-09-04 17:28:00,82.4,44.0,31.64,West,263,4.0,13.0,26,0.00,,,0.00,weatherlink.com 1.10,2013-09-04 23:28:00,
2013-09-04 17:43:00,83.1,45.0,31.64,WSW,240,7.0,9.0,26,0.00,,,0.00,weatherlink.com 1.10,2013-09-04 23:43:00,
2013-09-04 17:58:00,82.2,46.0,31.63,WSW,252,9.0,15.0,28,0.00,,,0.00,weatherlink.com 1.10,2013-09-04 23:58:00,
2013-09-04 18:13:00,81.6,46.0,31.62,WSW,252,15.0,15.0,29,0.00,,,0.00,weatherlink.com 1.10,2013-09-05 00:13:00,
2013-09-04 18:28:00,81.8,44.0,31.62,West,272,7.0,14.0,26,0.00,,,0.00,weatherlink.com 1.10,2013-09-05 00:28:00,
2013-09-04 18:43:00,81.4,43.0,31.62,WSW,237,6.0,16.0,26,0.00,,,0.00,weatherlink.com 1.10,2013-09-05 00:43:00,
2013-09-04 18:58:00,80.7,41.0,31.62,WNW,292,10.0,13.0,24,0.00,,,0.00,weatherlink.com 1.10,2013-09-05 00:58:00,
2013-09-04 19:13:00,80.6,39.0,31.61,WNW,299,12.0,15.0,23,0.00,,,0.00,weatherlink.com 1.10,2013-09-05 01:13:00,
2013-09-04 19:28:00,79.8,39.0,31.61,NNW,340,7.0,12.0,23,0.00,,,0.00,weatherlink.com 1.10,2013-09-05 01:28:00,
2013-09-04 19:43:00,79.4,40.0,31.61,NNW,339,6.0,10.0,24,0.00,,,0.00,weatherlink.com 1.10,2013-09-05 01:43:00,
2013-09-04 19:58:00,79.1,45.0,31.61,NNE,30,5.0,8.0,30,0.00,,,0.00,weatherlink.com 1.10,2013-09-05 01:58:00,
2013-09-04 20:13:00,78.8,47.0,31.61,ENE,69,4.0,9.0,33,0.00,,,0.00,weatherlink.com 1.10,2013-09-05 02:13:00,
2013-09-04 20:28:00,78.6,48.0,31.61,ENE,65,5.0,9.0,34,0.00,,,0.00,weatherlink.com 1.10,2013-09-05 02:28:00,
2013-09-04 20:43:00,-999.0,-99.9,31.61,North,-999,-999.0,-999.0,-999,0.00,,,0.00,weatherlink.com 1.10,2013-09-05 02:43:00,
2013-09-04 20:58:00,-999.0,-99.9,31.62,North,-999,-999.0,-999.0,-999,0.00,,,0.00,weatherlink.com 1.10,2013-09-05 02:58:00,
2013-09-04 21:13:00,-999.0,-99.9,31.63,North,-999,-999.0,-999.0,-999,0.00,,,0.00,weatherlink.com 1.10,2013-09-05 03:13:00,
2013-09-04 21:28:00,-999.0,-99.9,31.63,North,-999,-999.0,-999.0,-999,0.00,,,0.00,weatherlink.com 1.10,2013-09-05 03:28:00,
2013-09-04 21:43:00,-999.0,-99.9,31.64,North,-999,-999.0,-999.0,-999,0.00,,,0.00,weatherlink.com 1.10,2013-09-05 03:43:00,
2013-09-04 21:58:00,-999.0,-99.9,31.64,North,-999,-999.0,-999.0,-999,0.00,,,0.00,weatherlink.com 1.10,2013-09-05 03:58:00,
2013-09-04 22:14:00,-999.0,-99.9,31.64,North,-999,-999.0,-999.0,-999,0.00,,,0.00,weatherlink.com 1.10,2013-09-05 04:14:00,
2013-09-04 22:29:00,-999.0,-99.9,31.65,North,-999,-999.0,-999.0,-999,0.00,,,0.00,weatherlink.com 1.10,2013-09-05 04:29:00,
2013-09-04 22:44:00,-999.0,-99.9,31.64,North,-999,-999.0,-999.0,-999,0.00,,,0.00,weatherlink.com 1.10,2013-09-05 04:44:00,
2013-09-04 22:59:00,-999.0,-99.9,31.64,North,-999,-999.0,-999.0,-999,0.00,,,0.00,weatherlink.com 1.10,2013-09-05 04:59:00,
2013-09-04 23:14:00,-999.0,-99.9,31.64,North,-999,-999.0,-999.0,-999,0.00,,,0.00,weatherlink.com 1.10,2013-09-05 05:14:00,
2013-09-04 23:29:00,-999.0,-99.9,31.64,North,-999,-999.0,-999.0,-999,0.00,,,0.00,weatherlink.com 1.10,2013-09-05 05:29:00,
2013-09-04 23:44:00,-999.0,-99.9,31.63,North,-999,-999.0,-999.0,-999,0.00,,,0.00,weatherlink.com 1.10,2013-09-05 05:44:00,
2013-09-04 23:59:00,-999.0,-99.9,31.63,North,-999,-999.0,-999.0,-999,0.00,,,0.00,weatherlink.com 1.10,2013-09-05 05:59:00,